createdAt,value
2022-11-25T00:01:19.177Z,31.83
2022-11-25T00:03:52.236Z,32.23
2022-11-25T00:06:28.993Z,32.00
2022-11-25T00:09:03.327Z,30.47
2022-11-25T00:11:37.067Z,29.93
2022-11-25T00:14:12.245Z,29.50
2022-11-25T00:16:48.335Z,28.37
2022-11-25T00:19:21.846Z,29.27
2022-11-25T00:21:55.959Z,29.60
2022-11-25T00:24:28.745Z,27.83
2022-11-25T00:27:15.356Z,28.83
2022-11-25T00:29:48.064Z,28.83
2022-11-25T00:32:21.173Z,27.03
2022-11-25T00:34:54.055Z,27.00
2022-11-25T00:37:28.665Z,27.57
2022-11-25T00:40:01.648Z,28.20
2022-11-25T00:42:51.210Z,27.80
2022-11-25T00:45:23.988Z,29.10
2022-11-25T00:47:56.771Z,28.03
2022-11-25T00:50:32.427Z,28.47
2022-11-25T00:53:06.773Z,27.50
2022-11-25T00:55:53.397Z,27.30
2022-11-25T00:58:26.336Z,26.30
2022-11-25T01:01:03.397Z,27.07
2022-11-25T01:03:37.158Z,25.23
2022-11-25T01:06:11.677Z,26.10
2022-11-25T01:08:45.998Z,26.23
2022-11-25T01:11:20.128Z,25.03
2022-11-25T01:14:00.663Z,25.47
2022-11-25T01:16:34.281Z,26.10
2022-11-25T01:19:07.165Z,24.57
2022-11-25T01:21:40.033Z,24.87
2022-11-25T01:24:15.114Z,24.73
2022-11-25T01:26:47.917Z,23.73
2022-11-25T01:29:20.657Z,25.93
2022-11-25T01:31:55.467Z,25.03
2022-11-25T01:34:31.979Z,25.00
2022-11-25T01:37:05.581Z,25.53
2022-11-25T01:39:39.900Z,25.00
2022-11-25T01:42:13.474Z,25.37
2022-11-25T01:44:46.991Z,25.20
2022-11-25T01:47:23.430Z,26.93
2022-11-25T01:50:00.859Z,24.97
2022-11-25T01:52:36.607Z,25.27
2022-11-25T01:55:12.984Z,25.67
2022-11-25T01:57:48.419Z,24.37
2022-11-25T02:00:25.495Z,25.73
2022-11-25T02:02:59.069Z,26.63
2022-11-25T02:05:36.448Z,26.30
2022-11-25T02:08:09.331Z,25.80
2022-11-25T02:10:44.632Z,25.80
2022-11-25T02:13:17.670Z,25.03
2022-11-25T02:15:50.950Z,25.63
2022-11-25T02:18:23.647Z,25.43
2022-11-25T02:20:56.433Z,24.90
2022-11-25T02:23:33.738Z,26.07
2022-11-25T02:26:08.012Z,26.03
2022-11-25T02:28:41.006Z,24.77
2022-11-25T02:31:13.895Z,25.53
2022-11-25T02:33:46.933Z,25.20
2022-11-25T02:36:21.037Z,26.10
2022-11-25T02:38:55.906Z,25.00
2022-11-25T02:41:32.057Z,25.30
2022-11-25T02:44:04.976Z,23.27
2022-11-25T02:46:38.013Z,25.00
2022-11-25T02:49:11.008Z,24.67
2022-11-25T02:51:44.977Z,25.13
2022-11-25T02:54:17.872Z,23.70
2022-11-25T02:56:52.083Z,24.30
2022-11-25T02:59:24.864Z,24.20
2022-11-25T03:01:57.892Z,24.37
2022-11-25T03:04:30.795Z,24.23
2022-11-25T03:07:04.158Z,23.80
2022-11-25T03:09:36.958Z,24.70
2022-11-25T03:12:20.228Z,25.00
2022-11-25T03:14:52.878Z,24.80
2022-11-25T03:17:25.690Z,24.20
2022-11-25T03:20:01.132Z,23.73
2022-11-25T03:22:34.043Z,24.97
2022-11-25T03:25:07.540Z,26.40
2022-11-25T03:27:42.155Z,25.47
2022-11-25T03:30:15.863Z,22.20
2022-11-25T03:32:48.776Z,22.40
2022-11-25T03:35:21.832Z,22.23
2022-11-25T03:37:54.865Z,22.13
2022-11-25T03:40:27.701Z,21.37
2022-11-25T03:43:01.832Z,22.47
2022-11-25T03:45:34.797Z,22.63
2022-11-25T03:48:07.769Z,23.10
2022-11-25T03:50:40.680Z,23.00
2022-11-25T03:53:13.561Z,23.20
2022-11-25T03:55:48.592Z,23.93
2022-11-25T03:58:22.904Z,23.30
2022-11-25T04:00:55.756Z,23.07
2022-11-25T04:03:28.573Z,23.53
2022-11-25T04:06:01.387Z,23.13
2022-11-25T04:08:34.354Z,22.23
2022-11-25T04:11:07.224Z,20.73
2022-11-25T04:13:40.294Z,22.87
2022-11-25T04:16:23.719Z,22.63
2022-11-25T04:18:56.725Z,20.77
2022-11-25T04:21:29.521Z,21.77
2022-11-25T04:24:02.441Z,22.70
2022-11-25T04:26:35.493Z,22.00
2022-11-25T04:29:09.584Z,20.70
2022-11-25T04:31:42.394Z,21.00
2022-11-25T04:34:15.174Z,20.97
2022-11-25T04:36:47.979Z,22.53
2022-11-25T04:39:20.862Z,21.27
2022-11-25T04:42:13.545Z,20.67
2022-11-25T04:45:01.322Z,20.73
2022-11-25T04:47:41.108Z,20.97
2022-11-25T04:50:16.014Z,22.20
2022-11-25T04:52:48.996Z,21.20
2022-11-25T04:55:21.903Z,20.53
2022-11-25T04:57:54.778Z,22.13
2022-11-25T05:00:28.070Z,21.90
2022-11-25T05:03:00.944Z,21.83
2022-11-25T05:05:33.912Z,21.90
2022-11-25T05:08:06.941Z,21.17
2022-11-25T05:10:39.781Z,23.27
2022-11-25T05:13:12.566Z,21.17
2022-11-25T05:15:46.810Z,21.93
2022-11-25T05:18:19.666Z,22.23
2022-11-25T05:20:53.069Z,22.60
2022-11-25T05:23:25.831Z,22.57
2022-11-25T05:26:00.092Z,21.50
2022-11-25T05:28:33.358Z,21.63
2022-11-25T05:31:07.736Z,21.83
2022-11-25T05:33:40.594Z,21.63
2022-11-25T05:36:13.445Z,21.90
2022-11-25T05:38:46.236Z,22.80
2022-11-25T05:41:19.153Z,23.57
2022-11-25T05:43:51.908Z,22.57
2022-11-25T05:46:26.200Z,22.20
2022-11-25T05:48:59.084Z,22.77
2022-11-25T05:51:32.435Z,21.57
2022-11-25T05:54:05.220Z,22.70
2022-11-25T05:56:38.077Z,22.33
2022-11-25T05:59:10.791Z,22.30
2022-11-25T06:01:45.182Z,22.97
2022-11-25T06:04:18.288Z,21.80
2022-11-25T06:06:51.288Z,23.13
2022-11-25T06:09:24.444Z,22.93
2022-11-25T06:11:57.243Z,23.80
2022-11-25T06:14:30.034Z,24.27
2022-11-25T06:17:06.440Z,23.50
2022-11-25T06:19:39.433Z,23.60
2022-11-25T06:22:12.415Z,23.30
2022-11-25T06:24:49.319Z,24.63
2022-11-25T06:27:35.051Z,24.63
2022-11-25T06:30:17.515Z,25.03
2022-11-25T06:32:52.010Z,24.97
2022-11-25T06:35:24.910Z,23.67
2022-11-25T06:38:00.459Z,24.87
2022-11-25T06:40:33.610Z,24.60
2022-11-25T06:43:06.427Z,24.20
2022-11-25T06:45:39.245Z,24.73
2022-11-25T06:48:13.819Z,24.83
2022-11-25T06:50:46.767Z,24.67
2022-11-25T06:53:23.969Z,25.27
2022-11-25T06:56:04.357Z,24.60
2022-11-25T06:58:37.767Z,24.63
2022-11-25T07:01:14.899Z,24.07
2022-11-25T07:03:50.728Z,26.43
2022-11-25T07:06:24.113Z,24.33
2022-11-25T07:08:57.481Z,24.30
2022-11-25T07:11:31.276Z,27.17
2022-11-25T07:14:05.678Z,27.17
2022-11-25T07:16:39.070Z,26.47
2022-11-25T07:19:13.706Z,25.47
2022-11-25T07:21:47.256Z,25.70
2022-11-25T07:24:20.126Z,26.83
2022-11-25T07:26:52.995Z,26.53
2022-11-25T07:32:18.688Z,29.73
2022-11-25T07:34:53.295Z,29.23
2022-11-25T07:37:27.708Z,29.83
2022-11-25T07:40:00.622Z,29.93
2022-11-25T07:42:33.759Z,29.63
2022-11-25T07:45:07.433Z,28.10
2022-11-25T07:47:40.119Z,29.37
2022-11-25T07:50:14.606Z,29.40
2022-11-25T07:52:47.347Z,26.87
2022-11-25T07:55:20.415Z,28.80
2022-11-25T07:57:53.104Z,29.17
2022-11-25T08:00:25.890Z,29.07
2022-11-25T08:02:58.869Z,28.83
2022-11-25T08:05:33.717Z,28.27
2022-11-25T08:08:06.849Z,27.77
2022-11-25T08:10:40.862Z,28.13
2022-11-25T08:13:13.739Z,27.57
2022-11-25T08:15:46.710Z,27.83
2022-11-25T08:18:19.603Z,29.07
2022-11-25T08:20:53.796Z,29.73
2022-11-25T08:23:26.545Z,28.30
2022-11-25T08:25:59.476Z,28.30
2022-11-25T08:28:32.280Z,28.43
2022-11-25T08:31:05.573Z,27.17
2022-11-25T08:33:38.552Z,26.77
2022-11-25T08:36:13.662Z,26.13
2022-11-25T08:38:47.154Z,25.13
2022-11-25T08:41:23.478Z,26.10
2022-11-25T08:44:00.150Z,25.17
2022-11-25T08:46:36.369Z,25.63
2022-11-25T08:49:10.138Z,25.53
2022-11-25T08:51:44.698Z,26.57
2022-11-25T08:54:17.609Z,24.37
2022-11-25T08:56:50.548Z,26.17
2022-11-25T08:59:25.157Z,25.47
2022-11-25T09:01:57.923Z,25.67
2022-11-25T09:04:31.355Z,24.93
2022-11-25T09:07:06.228Z,24.87
2022-11-25T09:09:39.642Z,24.10
2022-11-25T09:12:12.610Z,24.17
2022-11-25T09:14:45.687Z,24.43
2022-11-25T09:17:18.665Z,21.97
2022-11-25T09:19:51.463Z,23.57
2022-11-25T09:22:25.679Z,22.90
2022-11-25T09:24:58.764Z,22.67
2022-11-25T09:27:31.942Z,21.77
2022-11-25T09:30:05.934Z,23.57
2022-11-25T09:32:39.385Z,22.60
2022-11-25T09:35:12.234Z,22.63
2022-11-25T09:37:46.672Z,23.33
2022-11-25T09:40:21.620Z,25.20
2022-11-25T09:43:14.166Z,23.13
2022-11-25T09:46:10.212Z,25.13
2022-11-25T09:48:54.604Z,23.00
2022-11-25T09:51:40.316Z,23.60
2022-11-25T09:54:36.392Z,25.13
2022-11-25T09:57:35.451Z,25.33
2022-11-25T10:00:44.299Z,24.83
2022-11-25T10:08:10.040Z,25.73
2022-11-25T10:10:46.253Z,24.23
2022-11-25T10:13:21.409Z,25.97
2022-11-25T10:15:55.632Z,25.57
2022-11-25T10:18:31.325Z,27.30
2022-11-25T10:21:05.389Z,35.00
2022-11-25T10:23:39.895Z,26.73
2022-11-25T10:26:15.416Z,23.13
2022-11-25T10:28:52.127Z,23.33
2022-11-25T10:31:26.957Z,22.17
2022-11-25T10:34:00.192Z,22.90
2022-11-25T10:36:35.033Z,23.97
2022-11-25T10:39:11.763Z,24.47
2022-11-25T10:41:49.564Z,25.77
2022-11-25T10:44:25.655Z,23.93
2022-11-25T10:47:15.580Z,25.07
2022-11-25T10:49:56.416Z,24.50
2022-11-25T10:52:33.491Z,25.63
2022-11-25T10:55:12.590Z,25.43
2022-11-25T10:57:46.866Z,26.30
2022-11-25T11:00:28.392Z,28.00
2022-11-25T11:03:02.472Z,27.37
2022-11-25T11:05:35.571Z,25.43
2022-11-25T11:08:10.167Z,25.83
2022-11-25T11:10:43.433Z,25.30
2022-11-25T11:13:22.571Z,26.53
2022-11-25T11:15:55.626Z,25.57
2022-11-25T11:18:29.948Z,27.83
2022-11-25T11:21:02.764Z,35.00
2022-11-25T11:23:52.024Z,32.77
2022-11-25T11:26:26.063Z,27.93
2022-11-25T11:29:07.384Z,27.53
2022-11-25T11:31:46.605Z,26.77
2022-11-25T11:34:34.267Z,29.23
2022-11-25T11:37:18.233Z,28.23
2022-11-25T11:40:03.877Z,28.40
2022-11-25T11:42:43.458Z,28.50
2022-11-25T11:45:24.150Z,25.60
2022-11-25T11:48:03.877Z,28.57
2022-11-25T11:50:39.777Z,26.37
2022-11-25T11:53:16.290Z,27.00
2022-11-25T11:56:18.879Z,27.53
2022-11-25T11:58:59.447Z,29.63
2022-11-25T12:01:46.641Z,26.03
2022-11-25T12:04:22.980Z,26.97
2022-11-25T12:07:02.560Z,26.37
2022-11-25T12:09:38.954Z,27.40
2022-11-25T12:12:15.784Z,25.63
2022-11-25T12:14:50.733Z,26.83
2022-11-25T12:17:28.391Z,27.13
2022-11-25T12:20:05.499Z,25.23
2022-11-25T12:22:41.886Z,34.83
2022-11-25T12:25:17.008Z,31.57
2022-11-25T12:27:52.461Z,25.67
2022-11-25T12:30:27.565Z,26.00
2022-11-25T12:33:04.770Z,25.77
2022-11-25T12:35:41.238Z,24.90
2022-11-25T12:38:29.214Z,27.10
2022-11-25T12:41:04.470Z,26.07
2022-11-25T12:43:42.405Z,25.33
2022-11-25T12:46:20.858Z,24.23
2022-11-25T12:48:56.013Z,24.03
2022-11-25T12:51:43.498Z,26.50
2022-11-25T12:54:25.494Z,25.00
2022-11-25T12:57:08.663Z,24.57
2022-11-25T12:59:49.636Z,24.40
2022-11-25T13:02:37.754Z,24.83
2022-11-25T13:05:40.010Z,26.40
2022-11-25T13:08:18.333Z,24.57
2022-11-25T13:11:01.755Z,23.90
2022-11-25T13:13:40.058Z,23.33
2022-11-25T13:16:14.183Z,24.80
2022-11-25T13:18:47.709Z,26.30
2022-11-25T13:21:24.061Z,24.33
2022-11-25T13:23:58.641Z,24.60
2022-11-25T13:26:48.076Z,23.73
2022-11-25T13:29:39.287Z,23.57
2022-11-25T13:32:27.098Z,22.87
2022-11-25T13:35:18.789Z,23.80
2022-11-25T13:37:53.089Z,23.77
2022-11-25T13:40:34.306Z,24.23
2022-11-25T13:43:21.257Z,23.60
2022-11-25T13:45:54.793Z,23.17
2022-11-25T13:48:29.114Z,24.50
2022-11-25T13:51:16.313Z,23.77
2022-11-25T13:53:54.667Z,24.23
2022-11-25T13:56:29.494Z,23.83
2022-11-25T13:59:22.661Z,24.07
2022-11-25T14:01:55.837Z,21.67
2022-11-25T14:04:38.564Z,21.80
2022-11-25T14:07:19.994Z,20.73
2022-11-25T14:10:04.223Z,21.90
2022-11-25T14:12:51.987Z,27.40
2022-11-25T14:15:34.366Z,21.30
2022-11-25T14:19:12.043Z,20.10
2022-11-25T14:21:34.585Z,20.07
2022-11-25T14:24:22.863Z,20.93
2022-11-25T14:26:59.419Z,18.87
2022-11-25T14:29:38.043Z,19.37
2022-11-25T14:32:14.218Z,19.93
2022-11-25T14:34:48.732Z,19.53
2022-11-25T14:37:27.321Z,20.70
2022-11-25T14:40:04.429Z,21.47
2022-11-25T14:42:39.510Z,21.93
2022-11-25T14:45:22.623Z,23.30
2022-11-25T14:47:55.373Z,22.37
2022-11-25T14:50:35.873Z,19.83
2022-11-25T14:53:09.845Z,21.13
2022-11-25T14:55:42.654Z,21.77
2022-11-25T14:58:16.920Z,21.40
2022-11-25T15:00:53.548Z,21.23
2022-11-25T15:03:26.232Z,21.33
2022-11-25T15:06:04.491Z,20.53
2022-11-25T15:08:41.295Z,18.70
2022-11-25T15:11:15.704Z,20.37
2022-11-25T15:13:50.460Z,20.10
2022-11-25T15:16:24.716Z,19.10
2022-11-25T15:18:58.625Z,19.73
2022-11-25T15:21:33.392Z,19.73
2022-11-25T15:24:07.092Z,21.07
2022-11-25T15:26:40.267Z,21.93
2022-11-25T15:29:16.519Z,20.57
2022-11-25T15:31:49.672Z,21.23
2022-11-25T15:34:23.759Z,20.43
2022-11-25T15:36:56.701Z,22.57
2022-11-25T15:39:30.679Z,20.83
2022-11-25T15:42:06.909Z,20.30
2022-11-25T15:44:45.613Z,18.83
2022-11-25T15:47:20.321Z,19.93
2022-11-25T15:49:59.340Z,21.20
2022-11-25T15:52:33.672Z,21.47
2022-11-25T15:55:07.914Z,23.07
2022-11-25T15:57:41.725Z,21.33
2022-11-25T16:00:17.167Z,21.40
2022-11-25T16:02:51.394Z,22.00
2022-11-25T16:05:29.187Z,29.07
2022-11-25T16:08:03.758Z,23.03
2022-11-25T16:10:50.403Z,32.30
2022-11-25T16:13:30.803Z,34.60
2022-11-25T16:16:21.461Z,23.13
2022-11-25T16:19:21.524Z,23.60
2022-11-25T16:22:00.378Z,21.77
2022-11-25T16:24:39.381Z,24.97
2022-11-25T16:27:23.064Z,23.03
2022-11-25T16:29:57.161Z,21.90
2022-11-25T16:32:31.681Z,23.80
2022-11-25T16:35:12.949Z,25.23
2022-11-25T16:40:40.688Z,22.90
2022-11-25T16:43:17.404Z,23.07
2022-11-25T16:45:51.591Z,21.90
2022-11-25T16:48:24.968Z,23.17
2022-11-25T16:50:58.730Z,23.83
2022-11-25T16:53:33.017Z,25.17
2022-11-25T16:56:06.881Z,24.73
2022-11-25T16:58:39.748Z,24.17
2022-11-25T17:01:13.397Z,24.97
2022-11-25T17:03:46.190Z,24.20
2022-11-25T17:06:22.191Z,24.57
2022-11-25T17:08:56.774Z,23.83
2022-11-25T17:11:30.695Z,26.20
2022-11-25T17:14:04.814Z,24.63
2022-11-25T17:16:38.028Z,23.00
2022-11-25T17:19:14.000Z,27.10
2022-11-25T17:21:47.154Z,33.73
2022-11-25T17:24:22.899Z,24.43
2022-11-25T17:26:57.223Z,24.10
2022-11-25T17:29:32.530Z,25.43
2022-11-25T17:32:09.046Z,24.47
2022-11-25T17:34:42.014Z,24.13
2022-11-25T17:37:16.179Z,24.27
2022-11-25T17:39:50.210Z,28.90
2022-11-25T17:42:24.640Z,27.20
2022-11-25T17:44:57.548Z,25.80
2022-11-25T17:47:30.449Z,25.30
2022-11-25T17:50:03.569Z,23.93
2022-11-25T17:52:36.361Z,23.53
2022-11-25T17:55:11.207Z,24.90
2022-11-25T17:57:44.177Z,23.77
2022-11-25T18:00:18.069Z,24.93
2022-11-25T18:02:51.025Z,24.87
2022-11-25T18:05:24.516Z,24.13
2022-11-25T18:07:57.487Z,23.27
2022-11-25T18:10:31.619Z,24.43
2022-11-25T18:13:04.439Z,23.70
2022-11-25T18:15:38.466Z,23.77
2022-11-25T18:18:16.627Z,23.80
2022-11-25T18:20:49.387Z,23.97
2022-11-25T18:23:22.249Z,23.73
2022-11-25T18:25:57.685Z,23.40
2022-11-25T18:28:31.595Z,22.97
2022-11-25T18:31:05.375Z,23.03
2022-11-25T18:33:38.404Z,23.80
2022-11-25T18:36:13.651Z,23.63
2022-11-25T18:38:48.388Z,27.43
2022-11-25T18:41:23.089Z,29.43
2022-11-25T18:43:55.835Z,30.33
2022-11-25T18:46:29.319Z,27.83
2022-11-25T18:49:02.489Z,25.70
2022-11-25T18:51:35.264Z,25.67
2022-11-25T18:54:10.912Z,25.53
2022-11-25T18:56:46.030Z,25.17
2022-11-25T18:59:20.146Z,27.33
2022-11-25T19:01:52.990Z,26.60
2022-11-25T19:04:25.746Z,29.30
2022-11-25T19:06:58.642Z,29.23
2022-11-25T19:09:31.466Z,28.57
2022-11-25T19:12:06.389Z,29.80
2022-11-25T19:14:42.045Z,27.60
2022-11-25T19:17:19.922Z,29.17
2022-11-25T19:19:53.063Z,27.73
2022-11-25T19:22:25.867Z,27.50
2022-11-25T19:24:59.068Z,26.90
2022-11-25T19:27:34.621Z,26.40
2022-11-25T19:30:08.012Z,27.80
2022-11-25T19:32:40.745Z,28.13
2022-11-25T19:35:15.007Z,26.30
2022-11-25T19:37:48.040Z,27.73
2022-11-25T19:40:22.713Z,28.67
2022-11-25T19:42:57.147Z,28.63
2022-11-25T19:45:31.062Z,27.67
2022-11-25T19:48:06.421Z,27.70
2022-11-25T19:50:39.561Z,26.87
2022-11-25T19:53:16.282Z,27.27
2022-11-25T19:55:49.661Z,26.47
2022-11-25T19:58:23.974Z,26.73
2022-11-25T20:00:58.348Z,25.57
2022-11-25T20:03:32.336Z,24.40
2022-11-25T20:06:05.614Z,29.70
2022-11-25T20:08:38.439Z,28.80
2022-11-25T20:11:13.037Z,33.27
2022-11-25T20:13:48.067Z,26.60
2022-11-25T20:16:22.535Z,21.77
2022-11-25T20:18:55.352Z,19.57
2022-11-25T20:21:30.960Z,18.90
2022-11-25T20:24:04.676Z,19.37
2022-11-25T20:26:38.592Z,18.43
2022-11-25T20:29:16.090Z,16.70
2022-11-25T20:31:49.489Z,16.07
2022-11-25T20:34:22.337Z,16.03
2022-11-25T20:36:55.144Z,17.13
2022-11-25T20:39:27.924Z,16.10
2022-11-25T20:42:00.853Z,16.07
2022-11-25T20:44:35.632Z,15.13
2022-11-25T20:47:14.337Z,16.20
2022-11-25T20:49:47.647Z,16.30
2022-11-25T20:52:22.434Z,16.77
2022-11-25T20:54:55.151Z,16.27
2022-11-25T20:57:28.350Z,15.80
2022-11-25T21:00:02.467Z,16.53
2022-11-25T21:02:35.540Z,16.37
2022-11-25T21:05:08.577Z,14.93
2022-11-25T21:07:41.368Z,16.40
2022-11-25T21:10:19.508Z,17.10
2022-11-25T21:12:52.725Z,17.10
2022-11-25T21:15:27.444Z,14.23
2022-11-25T21:18:00.103Z,14.87
2022-11-25T21:20:33.070Z,15.80
2022-11-25T21:23:06.466Z,15.50
2022-11-25T21:25:39.170Z,14.40
2022-11-25T21:28:16.219Z,15.63
2022-11-25T21:30:50.434Z,15.20
2022-11-25T21:33:23.590Z,15.33
2022-11-25T21:35:56.478Z,16.67
2022-11-25T21:38:29.339Z,16.57
2022-11-25T21:41:02.248Z,15.00
2022-11-25T21:43:35.134Z,15.57
2022-11-25T21:46:12.894Z,15.97
2022-11-25T21:48:45.786Z,16.10
2022-11-25T21:51:23.958Z,15.43
2022-11-25T21:53:56.871Z,15.47
2022-11-25T21:56:30.354Z,14.83
2022-11-25T21:59:04.030Z,16.07
2022-11-25T22:01:38.090Z,14.67
2022-11-25T22:04:13.673Z,15.00
2022-11-25T22:06:46.952Z,14.33
2022-11-25T22:09:19.818Z,13.40
2022-11-25T22:11:53.071Z,14.90
2022-11-25T22:14:28.920Z,15.27
2022-11-25T22:17:04.715Z,13.97
2022-11-25T22:19:37.502Z,13.30
2022-11-25T22:22:12.857Z,13.07
2022-11-25T22:24:45.981Z,13.70
2022-11-25T22:27:22.305Z,12.63
2022-11-25T22:29:55.477Z,13.87
2022-11-25T22:32:29.613Z,14.87
2022-11-25T22:35:02.466Z,14.43
2022-11-25T22:37:35.160Z,14.00
2022-11-25T22:40:08.646Z,13.73
2022-11-25T22:42:42.042Z,13.57
2022-11-25T22:45:21.389Z,14.53
2022-11-25T22:47:55.790Z,14.00
2022-11-25T22:50:29.368Z,14.47
2022-11-25T22:53:02.601Z,13.53
2022-11-25T22:55:35.535Z,13.83
2022-11-25T22:58:08.185Z,14.07
2022-11-25T23:00:42.653Z,13.03
2022-11-25T23:03:21.332Z,13.77
2022-11-25T23:05:57.807Z,12.77
2022-11-25T23:08:31.664Z,13.80
2022-11-25T23:11:04.678Z,13.57
2022-11-25T23:13:37.433Z,12.93
2022-11-25T23:16:11.326Z,12.87
2022-11-25T23:18:46.921Z,13.67
2022-11-25T23:21:20.927Z,12.53
2022-11-25T23:23:53.720Z,13.53
2022-11-25T23:26:32.300Z,12.53
2022-11-25T23:29:07.622Z,12.37
2022-11-25T23:31:40.708Z,13.10
2022-11-25T23:34:14.883Z,13.57
2022-11-25T23:36:49.706Z,14.07
2022-11-25T23:39:23.572Z,13.70
2022-11-25T23:41:57.110Z,13.77
2022-11-25T23:44:30.715Z,14.63
2022-11-25T23:47:05.786Z,16.47
2022-11-25T23:49:41.407Z,16.07
2022-11-25T23:52:15.656Z,14.57
2022-11-25T23:54:48.916Z,15.97
2022-11-25T23:57:22.787Z,16.97
2022-11-25T23:59:55.451Z,17.53
